createdAt,value
2019-06-08T00:01:22.652Z,15.30
2019-06-08T00:03:52.262Z,15.30
2019-06-08T00:06:23.012Z,15.30
2019-06-08T00:08:52.562Z,15.30
2019-06-08T00:11:23.266Z,15.40
2019-06-08T00:13:53.359Z,15.40
2019-06-08T00:16:23.806Z,15.40
2019-06-08T00:18:54.314Z,15.50
2019-06-08T00:21:24.072Z,15.40
2019-06-08T00:23:53.864Z,15.40
2019-06-08T00:26:24.389Z,15.50
2019-06-08T00:28:53.962Z,15.50
2019-06-08T00:31:23.645Z,15.50
2019-06-08T00:33:53.313Z,15.40
2019-06-08T00:36:23.081Z,15.50
2019-06-08T00:38:53.499Z,15.50
2019-06-08T00:41:23.724Z,15.50
2019-06-08T00:43:53.228Z,15.50
2019-06-08T00:46:23.604Z,15.50
2019-06-08T00:48:53.476Z,15.50
2019-06-08T00:51:23.341Z,15.50
2019-06-08T00:53:54.740Z,15.50
2019-06-08T00:56:24.278Z,15.50
2019-06-08T00:58:53.700Z,15.60
2019-06-08T01:01:25.070Z,15.60
2019-06-08T01:03:54.182Z,15.60
2019-06-08T01:06:23.510Z,15.60
2019-06-08T01:08:52.849Z,15.60
2019-06-08T01:11:22.580Z,15.60
2019-06-08T01:13:52.146Z,15.60
2019-06-08T01:16:21.470Z,15.60
2019-06-08T01:18:50.929Z,15.50
2019-06-08T01:21:21.299Z,15.60
2019-06-08T01:23:50.667Z,15.60
2019-06-08T01:26:20.109Z,15.60
2019-06-08T01:28:49.597Z,15.50
2019-06-08T01:31:20.359Z,15.50
2019-06-08T01:33:49.771Z,15.50
2019-06-08T01:36:20.623Z,15.40
2019-06-08T01:38:50.346Z,15.40
2019-06-08T01:41:21.240Z,15.40
2019-06-08T01:43:50.830Z,15.40
2019-06-08T01:46:21.764Z,15.30
2019-06-08T01:48:51.220Z,15.30
2019-06-08T01:51:22.518Z,15.30
2019-06-08T01:53:51.947Z,15.30
2019-06-08T01:56:22.842Z,15.30
2019-06-08T01:58:52.340Z,15.30
2019-06-08T02:01:21.665Z,15.20
2019-06-08T02:03:51.176Z,15.20
2019-06-08T02:06:21.466Z,15.20
2019-06-08T02:08:50.896Z,15.20
2019-06-08T02:11:20.322Z,15.20
2019-06-08T02:13:49.673Z,15.20
2019-06-08T02:16:19.094Z,15.10
2019-06-08T02:18:51.135Z,15.10
2019-06-08T02:21:19.801Z,15.10
2019-06-08T02:23:49.264Z,15.10
2019-06-08T02:26:18.647Z,15.10
2019-06-08T02:28:48.231Z,15.00
2019-06-08T02:31:17.547Z,15.00
2019-06-08T02:33:46.962Z,15.00
2019-06-08T02:36:16.664Z,15.00
2019-06-08T02:38:46.353Z,15.00
2019-06-08T02:41:15.723Z,14.90
2019-06-08T02:43:45.229Z,14.90
2019-06-08T02:46:15.026Z,14.90
2019-06-08T02:49:02.435Z,14.90
2019-06-08T02:51:17.624Z,14.90
2019-06-08T02:53:47.022Z,14.90
2019-06-08T02:56:17.178Z,14.90
2019-06-08T02:58:47.923Z,14.80
2019-06-08T03:01:19.378Z,14.80
2019-06-08T03:03:51.118Z,14.80
2019-06-08T03:06:21.905Z,14.80
2019-06-08T03:08:51.613Z,14.80
2019-06-08T03:11:21.245Z,14.80
2019-06-08T03:13:51.599Z,14.80
2019-06-08T03:16:21.165Z,14.80
2019-06-08T03:18:50.759Z,14.80
2019-06-08T03:21:20.550Z,14.80
2019-06-08T03:23:49.952Z,14.80
2019-06-08T03:26:19.395Z,14.80
2019-06-08T03:28:48.759Z,14.80
2019-06-08T03:31:18.157Z,14.80
2019-06-08T03:33:55.142Z,14.80
2019-06-08T03:36:18.798Z,14.70
2019-06-08T03:38:48.457Z,14.70
2019-06-08T03:41:17.801Z,14.70
2019-06-08T03:43:47.487Z,14.70
2019-06-08T03:46:16.825Z,14.60
2019-06-08T03:48:46.587Z,14.60
2019-06-08T03:51:15.983Z,14.60
2019-06-08T03:53:47.324Z,14.60
2019-06-08T03:56:16.591Z,14.60
2019-06-08T03:58:47.896Z,14.60
2019-06-08T04:01:18.444Z,14.60
2019-06-08T04:03:50.316Z,14.60
2019-06-08T04:06:19.795Z,14.60
2019-06-08T04:08:50.010Z,14.60
2019-06-08T04:11:19.573Z,14.60
2019-06-08T04:13:50.095Z,14.60
2019-06-08T04:16:21.166Z,14.60
2019-06-08T04:18:50.551Z,14.60
2019-06-08T04:21:19.962Z,14.60
2019-06-08T04:23:50.653Z,14.60
2019-06-08T04:26:20.198Z,14.60
2019-06-08T04:28:49.707Z,14.60
2019-06-08T04:31:19.105Z,14.50
2019-06-08T04:33:48.508Z,14.50
2019-06-08T04:36:18.101Z,14.50
2019-06-08T04:38:49.989Z,14.50
2019-06-08T04:41:18.779Z,14.50
2019-06-08T04:43:49.912Z,14.50
2019-06-08T04:46:19.559Z,14.50
2019-06-08T04:48:49.951Z,14.50
2019-06-08T04:51:19.641Z,14.50
2019-06-08T04:53:49.626Z,14.50
2019-06-08T04:56:19.148Z,14.50
2019-06-08T04:58:50.783Z,14.40
2019-06-08T05:01:19.611Z,14.40
2019-06-08T05:03:49.927Z,14.40
2019-06-08T05:06:20.193Z,14.40
2019-06-08T05:08:49.833Z,14.40
2019-06-08T05:11:19.255Z,14.30
2019-06-08T05:13:49.700Z,14.40
2019-06-08T05:16:19.733Z,14.40
2019-06-08T05:18:49.633Z,14.40
2019-06-08T05:21:19.599Z,14.40
2019-06-08T05:23:57.924Z,14.30
2019-06-08T05:26:20.324Z,14.30
2019-06-08T05:28:49.763Z,14.30
2019-06-08T05:31:19.268Z,14.30
2019-06-08T05:33:49.678Z,14.30
2019-06-08T05:36:19.531Z,14.30
2019-06-08T05:38:49.918Z,14.30
2019-06-08T05:41:19.487Z,14.30
2019-06-08T05:43:49.959Z,14.30
2019-06-08T05:46:19.445Z,14.40
2019-06-08T05:48:50.287Z,14.40
2019-06-08T05:51:20.212Z,14.40
2019-06-08T05:53:50.132Z,14.50
2019-06-08T05:56:20.153Z,14.40
2019-06-08T05:58:50.382Z,14.40
2019-06-08T06:01:20.000Z,14.40
2019-06-08T06:03:51.534Z,14.30
2019-06-08T06:06:20.802Z,14.40
2019-06-08T06:08:50.980Z,14.40
2019-06-08T06:11:20.401Z,14.30
2019-06-08T06:13:49.724Z,14.40
2019-06-08T06:16:19.125Z,14.30
2019-06-08T06:18:49.148Z,14.30
2019-06-08T06:21:18.794Z,14.20
2019-06-08T06:23:49.317Z,14.10
2019-06-08T06:26:18.919Z,14.20
2019-06-08T06:28:49.579Z,14.20
2019-06-08T06:31:19.221Z,14.10
2019-06-08T06:33:50.056Z,13.90
2019-06-08T06:36:21.522Z,13.90
2019-06-08T06:38:52.076Z,13.80
2019-06-08T06:41:23.572Z,13.80
2019-06-08T06:43:52.886Z,13.90
2019-06-08T06:46:22.272Z,13.70
2019-06-08T06:48:52.493Z,13.60
2019-06-08T06:51:26.497Z,13.40
2019-06-08T06:53:54.501Z,13.30
2019-06-08T06:56:24.108Z,13.40
2019-06-08T06:58:53.805Z,13.50
2019-06-08T07:01:23.627Z,13.70
2019-06-08T07:03:54.384Z,13.70
2019-06-08T07:06:24.342Z,13.80
2019-06-08T07:08:54.637Z,14.00
2019-06-08T07:11:25.328Z,14.10
2019-06-08T07:13:55.143Z,14.30
2019-06-08T07:16:26.066Z,14.40
2019-06-08T07:18:56.729Z,14.50
2019-06-08T07:21:40.698Z,14.50
2019-06-08T07:23:58.789Z,14.50
2019-06-08T07:26:28.623Z,14.50
2019-06-08T07:28:58.934Z,14.50
2019-06-08T07:31:31.515Z,14.50
2019-06-08T07:34:00.903Z,14.80
2019-06-08T07:36:30.237Z,15.00
2019-06-08T07:38:59.683Z,15.00
2019-06-08T07:41:29.382Z,14.90
2019-06-08T07:43:58.726Z,14.80
2019-06-08T07:46:29.113Z,14.70
2019-06-08T07:48:58.681Z,14.80
2019-06-08T07:51:28.536Z,14.80
2019-06-08T07:53:57.962Z,14.90
2019-06-08T07:56:27.673Z,14.90
2019-06-08T07:58:57.229Z,15.00
2019-06-08T08:01:36.065Z,15.10
2019-06-08T08:03:59.008Z,15.10
2019-06-08T08:06:30.564Z,15.10
2019-06-08T08:08:59.588Z,15.00
2019-06-08T08:11:30.705Z,15.00
2019-06-08T08:14:01.442Z,15.00
2019-06-08T08:16:31.049Z,15.10
2019-06-08T08:19:01.493Z,15.10
2019-06-08T08:21:31.141Z,15.00
2019-06-08T08:24:01.632Z,15.00
2019-06-08T08:26:39.089Z,15.00
2019-06-08T08:29:11.327Z,15.00
2019-06-08T08:31:40.866Z,15.20
2019-06-08T08:34:10.524Z,15.20
2019-06-08T08:36:40.088Z,15.40
2019-06-08T08:39:09.801Z,15.60
2019-06-08T08:41:39.245Z,15.70
2019-06-08T08:44:09.773Z,15.90
2019-06-08T08:46:39.103Z,16.00
2019-06-08T08:49:12.650Z,16.10
2019-06-08T08:51:39.597Z,16.20
2019-06-08T08:54:08.960Z,16.30
2019-06-08T08:56:39.557Z,16.30
2019-06-08T08:59:10.796Z,16.30
2019-06-08T09:01:40.728Z,16.40
2019-06-08T09:04:10.415Z,16.60
2019-06-08T09:06:40.004Z,16.80
2019-06-08T09:09:09.606Z,16.80
2019-06-08T09:11:41.214Z,16.70
2019-06-08T09:14:13.927Z,16.60
2019-06-08T09:16:41.412Z,16.70
2019-06-08T09:19:11.072Z,16.50
2019-06-08T09:21:40.750Z,16.40
2019-06-08T09:24:10.157Z,16.30
2019-06-08T09:26:41.489Z,16.30
2019-06-08T09:29:11.450Z,16.30
2019-06-08T09:31:40.863Z,16.20
2019-06-08T09:34:14.979Z,16.20
2019-06-08T09:36:41.360Z,16.20
2019-06-08T09:39:12.914Z,16.10
2019-06-08T09:41:42.452Z,16.10
2019-06-08T09:44:12.168Z,16.00
2019-06-08T09:46:41.669Z,16.00
2019-06-08T09:49:11.786Z,16.00
2019-06-08T09:51:41.598Z,15.90
2019-06-08T09:54:12.835Z,15.90
2019-06-08T09:56:42.228Z,16.00
2019-06-08T09:59:14.795Z,16.00
2019-06-08T10:01:43.160Z,16.00
2019-06-08T10:04:14.021Z,16.10
2019-06-08T10:06:43.644Z,16.30
2019-06-08T10:09:13.248Z,16.50
2019-06-08T10:11:43.005Z,16.60
2019-06-08T10:14:13.027Z,16.80
2019-06-08T10:16:42.491Z,17.00
2019-06-08T10:19:12.184Z,17.40
2019-06-08T10:21:43.168Z,17.70
2019-06-08T10:24:14.028Z,17.70
2019-06-08T10:26:43.540Z,17.30
2019-06-08T10:29:14.000Z,17.10
2019-06-08T10:31:44.079Z,16.80
2019-06-08T10:34:13.536Z,16.60
2019-06-08T10:36:43.187Z,16.60
2019-06-08T10:39:12.536Z,16.60
2019-06-08T10:41:42.330Z,16.80
2019-06-08T10:44:14.348Z,16.90
2019-06-08T10:46:42.983Z,17.10
2019-06-08T10:49:14.301Z,17.60
2019-06-08T10:51:43.590Z,17.70
2019-06-08T10:54:14.050Z,17.70
2019-06-08T10:56:43.780Z,18.10
2019-06-08T10:59:13.673Z,18.10
2019-06-08T11:01:43.050Z,17.80
2019-06-08T11:04:12.592Z,17.60
2019-06-08T11:06:42.213Z,17.30
2019-06-08T11:09:15.395Z,17.00
2019-06-08T11:11:47.945Z,16.80
2019-06-08T11:14:18.421Z,16.80
2019-06-08T11:16:47.735Z,17.00
2019-06-08T11:19:17.951Z,17.10
2019-06-08T11:21:48.225Z,17.00
2019-06-08T11:24:25.257Z,16.90
2019-06-08T11:26:54.219Z,16.80
2019-06-08T11:29:23.685Z,16.80
2019-06-08T11:31:53.045Z,16.70
2019-06-08T11:34:22.379Z,16.80
2019-06-08T11:36:51.963Z,17.10
2019-06-08T11:39:21.755Z,17.20
2019-06-08T11:41:51.402Z,17.30
2019-06-08T11:44:20.971Z,17.30
2019-06-08T11:46:50.644Z,17.20
2019-06-08T11:49:20.108Z,17.20
2019-06-08T11:51:49.481Z,17.30
2019-06-08T11:54:33.158Z,17.50
2019-06-08T11:56:53.821Z,17.70
2019-06-08T11:59:25.011Z,17.70
2019-06-08T12:01:54.349Z,17.60
2019-06-08T12:04:24.839Z,17.60
2019-06-08T12:06:54.927Z,17.70
2019-06-08T12:09:25.513Z,17.90
2019-06-08T12:11:55.183Z,18.00
2019-06-08T12:14:24.785Z,18.10
2019-06-08T12:16:54.105Z,17.90
2019-06-08T12:19:24.270Z,17.80
2019-06-08T12:21:54.009Z,17.70
2019-06-08T12:24:23.337Z,17.90
2019-06-08T12:26:59.060Z,18.10
2019-06-08T12:29:23.709Z,18.50
2019-06-08T12:31:53.016Z,19.00
2019-06-08T12:34:22.693Z,19.50
2019-06-08T12:36:52.023Z,19.60
2019-06-08T12:39:21.553Z,19.90
2019-06-08T12:41:50.930Z,20.00
2019-06-08T12:44:22.153Z,19.70
2019-06-08T12:46:51.459Z,19.80
2019-06-08T12:49:21.773Z,19.70
2019-06-08T12:51:51.930Z,19.70
2019-06-08T12:54:22.066Z,19.80
2019-06-08T12:56:51.470Z,20.20
2019-06-08T12:59:23.122Z,22.00
2019-06-08T13:01:54.024Z,22.40
2019-06-08T13:04:24.066Z,23.10
2019-06-08T13:06:54.468Z,25.70
2019-06-08T13:09:23.944Z,27.30
2019-06-08T13:11:56.318Z,26.10
2019-06-08T13:14:28.410Z,27.50
2019-06-08T13:17:00.882Z,25.80
2019-06-08T13:19:29.424Z,24.20
2019-06-08T13:21:59.100Z,25.70
2019-06-08T13:24:29.771Z,24.30
2019-06-08T13:27:00.856Z,23.10
2019-06-08T13:29:30.557Z,24.10
2019-06-08T13:32:01.585Z,25.70
2019-06-08T13:34:32.235Z,27.00
2019-06-08T13:37:01.884Z,28.50
2019-06-08T13:39:31.229Z,29.30
2019-06-08T13:42:00.911Z,26.90
2019-06-08T13:44:30.306Z,24.10
2019-06-08T13:46:59.896Z,25.40
2019-06-08T13:49:31.046Z,25.80
2019-06-08T13:52:00.731Z,26.50
2019-06-08T13:54:31.342Z,27.70
2019-06-08T13:57:01.093Z,28.20
2019-06-08T13:59:31.028Z,28.40
2019-06-08T14:02:01.088Z,27.10
2019-06-08T14:04:31.434Z,26.00
2019-06-08T14:07:00.823Z,26.10
2019-06-08T14:09:31.506Z,25.10
2019-06-08T14:12:01.357Z,26.90
2019-06-08T14:14:33.744Z,27.20
2019-06-08T14:17:03.032Z,25.50
2019-06-08T14:19:32.490Z,26.80
2019-06-08T14:22:02.096Z,26.80
2019-06-08T14:24:34.399Z,24.10
2019-06-08T14:27:02.847Z,22.50
2019-06-08T14:29:32.450Z,21.20
2019-06-08T14:32:02.166Z,20.60
2019-06-08T14:34:32.499Z,19.70
2019-06-08T14:37:05.597Z,18.50
2019-06-08T14:39:37.648Z,18.60
2019-06-08T14:42:08.292Z,19.20
2019-06-08T14:44:38.207Z,20.30
2019-06-08T14:47:13.648Z,22.70
2019-06-08T14:49:48.658Z,24.60
2019-06-08T14:52:20.244Z,25.80
2019-06-08T14:54:51.095Z,25.90
2019-06-08T14:57:21.160Z,26.50
2019-06-08T14:59:50.607Z,27.10
2019-06-08T15:02:21.105Z,26.80
2019-06-08T15:04:50.580Z,24.70
2019-06-08T15:07:22.944Z,23.00
2019-06-08T15:09:51.225Z,21.20
2019-06-08T15:12:21.436Z,19.90
2019-06-08T15:14:51.245Z,18.50
2019-06-08T15:17:21.696Z,16.50
2019-06-08T15:19:51.155Z,15.30
2019-06-08T15:22:20.847Z,14.30
2019-06-08T15:24:50.767Z,13.90
2019-06-08T15:27:21.515Z,13.60
2019-06-08T15:29:51.354Z,13.40
2019-06-08T15:32:20.931Z,13.40
2019-06-08T15:34:50.862Z,13.50
2019-06-08T15:37:21.185Z,13.60
2019-06-08T15:39:51.465Z,13.70
2019-06-08T15:42:21.978Z,13.70
2019-06-08T15:44:51.343Z,13.70
2019-06-08T15:47:20.677Z,13.50
2019-06-08T15:49:50.394Z,13.30
2019-06-08T15:52:19.895Z,13.20
2019-06-08T15:54:49.481Z,13.10
2019-06-08T15:57:18.938Z,13.00
2019-06-08T15:59:49.268Z,12.90
2019-06-08T16:02:18.794Z,12.80
2019-06-08T16:04:48.098Z,12.60
2019-06-08T16:07:17.508Z,12.60
2019-06-08T16:09:46.842Z,12.90
2019-06-08T16:12:16.238Z,16.00
2019-06-08T16:14:45.538Z,17.50
2019-06-08T16:17:15.103Z,16.50
2019-06-08T16:19:44.676Z,16.00
2019-06-08T16:22:14.327Z,18.30
2019-06-08T16:24:43.708Z,19.40
2019-06-08T16:27:13.028Z,19.90
2019-06-08T16:29:42.615Z,20.20
2019-06-08T16:32:12.172Z,20.40
2019-06-08T16:34:41.538Z,20.70
2019-06-08T16:37:12.300Z,20.80
2019-06-08T16:39:42.395Z,20.50
2019-06-08T16:42:11.886Z,21.30
2019-06-08T16:44:42.302Z,20.00
2019-06-08T16:47:12.218Z,18.20
2019-06-08T16:49:42.128Z,17.10
2019-06-08T16:52:11.479Z,16.30
2019-06-08T16:54:41.147Z,15.80
2019-06-08T16:57:11.240Z,15.30
2019-06-08T17:03:08.421Z,14.30
2019-06-08T17:05:38.498Z,13.90
2019-06-08T17:08:07.964Z,13.80
2019-06-08T17:10:38.642Z,15.00
2019-06-08T17:13:11.205Z,14.70
2019-06-08T17:15:40.439Z,14.50
2019-06-08T17:18:11.192Z,14.30
2019-06-08T17:20:40.744Z,14.20
2019-06-08T17:23:10.461Z,14.10
2019-06-08T17:25:41.075Z,14.40
2019-06-08T17:28:10.760Z,14.50
2019-06-08T17:30:41.417Z,14.70
2019-06-08T17:33:11.171Z,14.70
2019-06-08T17:35:42.161Z,14.60
2019-06-08T17:38:12.017Z,14.30
2019-06-08T17:40:42.435Z,14.20
2019-06-08T17:43:13.278Z,14.10
2019-06-08T17:45:43.028Z,14.00
2019-06-08T17:48:12.943Z,13.90
2019-06-08T17:50:42.986Z,13.90
2019-06-08T17:53:12.688Z,13.80
2019-06-08T17:55:43.543Z,13.70
2019-06-08T17:58:13.269Z,13.80
2019-06-08T18:00:44.055Z,13.70
2019-06-08T18:03:13.426Z,13.60
2019-06-08T18:05:45.641Z,13.60
2019-06-08T18:08:17.348Z,13.70
2019-06-08T18:10:48.195Z,13.70
2019-06-08T18:13:18.473Z,13.70
2019-06-08T18:15:51.260Z,13.70
2019-06-08T18:18:37.616Z,13.70
2019-06-08T18:21:08.165Z,13.70
2019-06-08T18:23:40.230Z,13.70
2019-06-08T18:26:08.667Z,13.70
2019-06-08T18:28:39.666Z,13.60
2019-06-08T18:31:09.694Z,13.60
2019-06-08T18:33:41.002Z,13.70
2019-06-08T18:36:10.215Z,13.80
2019-06-08T18:38:40.995Z,14.00
2019-06-08T18:41:10.936Z,14.30
2019-06-08T18:43:41.558Z,14.50
2019-06-08T18:46:11.331Z,14.70
2019-06-08T18:48:43.179Z,14.70
2019-06-08T18:51:14.266Z,14.80
2019-06-08T18:54:05.401Z,14.90
2019-06-08T18:56:15.009Z,15.00
2019-06-08T18:58:44.563Z,15.10
2019-06-08T19:01:13.993Z,15.00
2019-06-08T19:03:47.130Z,14.90
2019-06-08T19:06:14.948Z,14.80
2019-06-08T19:08:45.410Z,14.70
2019-06-08T19:11:16.748Z,14.60
2019-06-08T19:13:48.001Z,14.50
2019-06-08T19:16:18.168Z,14.40
2019-06-08T19:18:52.511Z,14.40
2019-06-08T19:21:19.169Z,14.40
2019-06-08T19:23:50.400Z,14.40
2019-06-08T19:26:20.337Z,14.50
2019-06-08T19:28:53.944Z,14.50
2019-06-08T19:31:21.582Z,14.40
2019-06-08T19:33:53.249Z,14.30
2019-06-08T19:36:22.411Z,14.20
2019-06-08T19:38:54.225Z,14.20
2019-06-08T19:41:23.292Z,14.10
2019-06-08T19:43:54.615Z,14.00
2019-06-08T19:46:23.732Z,14.00
2019-06-08T19:48:55.516Z,14.00
2019-06-08T19:51:24.810Z,13.90
2019-06-08T19:53:55.028Z,14.00
2019-06-08T19:56:24.582Z,14.00
2019-06-08T19:59:01.887Z,13.90
2019-06-08T20:01:27.635Z,13.80
2019-06-08T20:04:01.237Z,13.80
2019-06-08T20:06:29.890Z,13.70
2019-06-08T20:08:59.365Z,13.70
2019-06-08T20:11:29.469Z,13.80
2019-06-08T20:13:58.808Z,13.70
2019-06-08T20:16:28.466Z,13.70
2019-06-08T20:18:58.545Z,13.70
2019-06-08T20:21:28.015Z,13.60
2019-06-08T20:23:58.588Z,13.40
2019-06-08T20:26:28.530Z,13.50
2019-06-08T20:29:12.230Z,13.60
2019-06-08T20:31:29.035Z,13.60
2019-06-08T20:33:58.698Z,13.50
2019-06-08T20:36:29.206Z,13.40
2019-06-08T20:38:58.593Z,13.20
2019-06-08T20:41:28.170Z,13.10
2019-06-08T20:43:58.110Z,13.00
2019-06-08T20:46:28.681Z,12.90
2019-06-08T20:48:58.335Z,12.80
2019-06-08T20:51:27.937Z,12.60
2019-06-08T20:53:57.447Z,12.40
2019-06-08T20:56:28.195Z,12.30
2019-06-08T20:58:57.595Z,12.20
2019-06-08T21:01:27.226Z,12.10
2019-06-08T21:03:57.116Z,12.00
2019-06-08T21:06:27.975Z,12.00
2019-06-08T21:08:59.801Z,12.00
2019-06-08T21:11:28.743Z,12.00
2019-06-08T21:13:58.051Z,12.00
2019-06-08T21:16:27.768Z,12.00
2019-06-08T21:18:57.919Z,12.00
2019-06-08T21:21:28.321Z,11.90
2019-06-08T21:24:01.136Z,11.80
2019-06-08T21:26:29.250Z,11.70
2019-06-08T21:29:00.389Z,11.70
2019-06-08T21:31:29.601Z,11.60
2019-06-08T21:34:00.742Z,11.60
2019-06-08T21:36:30.168Z,11.50
2019-06-08T21:39:02.235Z,11.50
2019-06-08T21:41:32.325Z,11.50
2019-06-08T21:44:02.212Z,11.50
2019-06-08T21:46:31.631Z,11.40
2019-06-08T21:49:00.935Z,11.30
2019-06-08T21:51:30.503Z,11.30
2019-06-08T21:54:00.574Z,11.30
2019-06-08T21:56:30.201Z,11.20
2019-06-08T21:59:01.053Z,11.10
2019-06-08T22:01:32.908Z,11.10
2019-06-08T22:04:02.628Z,11.10
2019-06-08T22:06:31.948Z,11.10
2019-06-08T22:09:02.824Z,11.10
2019-06-08T22:11:34.163Z,11.20
2019-06-08T22:14:03.800Z,11.20
2019-06-08T22:16:33.200Z,11.20
2019-06-08T22:19:03.367Z,11.10
2019-06-08T22:21:32.845Z,11.10
2019-06-08T22:24:03.604Z,11.10
2019-06-08T22:30:35.259Z,11.10
2019-06-08T22:32:52.289Z,11.00
2019-06-08T22:35:22.672Z,11.00
2019-06-08T22:37:53.235Z,10.90
2019-06-08T22:40:22.606Z,10.90
2019-06-08T22:42:52.531Z,10.80
2019-06-08T22:45:22.159Z,10.90
2019-06-08T22:47:52.934Z,10.90
2019-06-08T22:50:23.022Z,10.80
2019-06-08T22:52:53.978Z,10.80
2019-06-08T22:55:24.653Z,10.80
2019-06-08T22:57:55.334Z,10.80
2019-06-08T23:00:24.951Z,10.70
2019-06-08T23:02:55.934Z,10.60
2019-06-08T23:05:27.872Z,10.60
2019-06-08T23:07:59.862Z,10.50
2019-06-08T23:10:28.548Z,10.40
2019-06-08T23:12:59.481Z,10.30
2019-06-08T23:15:28.899Z,10.20
2019-06-08T23:18:00.947Z,10.20
2019-06-08T23:20:29.226Z,10.10
2019-06-08T23:23:01.169Z,10.10
2019-06-08T23:25:29.800Z,10.20
2019-06-08T23:28:00.168Z,10.20
2019-06-08T23:30:29.754Z,10.20
2019-06-08T23:33:01.121Z,10.20
2019-06-08T23:35:56.853Z,10.30
2019-06-08T23:38:01.365Z,10.30
2019-06-08T23:40:30.995Z,10.30
2019-06-08T23:43:01.587Z,10.30
2019-06-08T23:45:31.361Z,10.20
2019-06-08T23:48:01.226Z,10.20
2019-06-08T23:50:31.912Z,10.20
2019-06-08T23:53:02.297Z,10.20
2019-06-08T23:55:31.742Z,10.20
2019-06-08T23:58:01.509Z,10.20
